N615S KPSP-KSAN
Flight info
| Callsign | N615S |
|---|---|
| Flight time | 0h 30m |
| Altitude | 16000 |
| Route | HWRRD1 TRM V514 MZB |
| Aircraft | E55P/M-SBDFGHJ2RWY/LB2 |
Departure
| Time | 2026-04-24 04:05 |
|---|---|
| Airport | Palm Springs International Airport (KPSP) |
Arrival
| Time | 2026-04-24 04:35 |
|---|---|
| Airport | San Diego International Airport (KSAN) |
| Time | Latitude | Longitude | Altitude | Speed | Heading |
|---|---|---|---|---|---|
| 2026-04-24 03:40 | 33.82618 | -116.50856 | 487 ft | 0 kts | 269° |
| 2026-04-24 03:55 | 33.82618 | -116.50857 | 497 ft | 0 kts | 269° |
| 2026-04-24 03:56 | 33.82618 | -116.50861 | 497 ft | 1 kts | 267° |
| 2026-04-24 03:56 | 33.82596 | -116.50877 | 497 ft | 7 kts | 160° |
| 2026-04-24 03:56 | 33.82545 | -116.50820 | 494 ft | 11 kts | 120° |
| 2026-04-24 03:56 | 33.82535 | -116.50738 | 493 ft | 11 kts | 89° |
| 2026-04-24 03:57 | 33.82521 | -116.50661 | 491 ft | 6 kts | 125° |
| 2026-04-24 03:57 | 33.82542 | -116.50621 | 491 ft | 5 kts | 48° |
| 2026-04-24 03:57 | 33.82527 | -116.50581 | 489 ft | 6 kts | 143° |
| 2026-04-24 03:57 | 33.82484 | -116.50542 | 488 ft | 8 kts | 142° |
| 2026-04-24 03:58 | 33.82430 | -116.50493 | 485 ft | 11 kts | 142° |
| 2026-04-24 03:58 | 33.82362 | -116.50433 | 483 ft | 12 kts | 144° |
| 2026-04-24 03:58 | 33.82292 | -116.50373 | 481 ft | 12 kts | 144° |
| 2026-04-24 03:58 | 33.82222 | -116.50311 | 479 ft | 13 kts | 142° |
| 2026-04-24 03:59 | 33.82143 | -116.50239 | 476 ft | 15 kts | 143° |
| 2026-04-24 03:59 | 33.82054 | -116.50160 | 473 ft | 16 kts | 142° |
| 2026-04-24 03:59 | 33.81959 | -116.50075 | 471 ft | 17 kts | 143° |
| 2026-04-24 03:59 | 33.81865 | -116.49991 | 468 ft | 10 kts | 142° |
| 2026-04-24 04:00 | 33.81853 | -116.49912 | 467 ft | 10 kts | 89° |
| 2026-04-24 04:00 | 33.81853 | -116.49892 | 466 ft | 0 kts | 89° |
| 2026-04-24 04:03 | 33.81853 | -116.49891 | 466 ft | 0 kts | 89° |
| 2026-04-24 04:04 | 33.81853 | -116.49871 | 466 ft | 4 kts | 89° |
| 2026-04-24 04:04 | 33.81874 | -116.49823 | 466 ft | 8 kts | 30° |
| 2026-04-24 04:04 | 33.81926 | -116.49837 | 466 ft | 9 kts | 326° |
| 2026-04-24 04:04 | 33.82168 | -116.50050 | 472 ft | 80 kts | 321° |
| 2026-04-24 04:05 | 33.82776 | -116.50593 | 596 ft | 125 kts | 322° |
| 2026-04-24 04:05 | 33.83476 | -116.51226 | 1124 ft | 132 kts | 322° |
| 2026-04-24 04:05 | 33.84229 | -116.51901 | 1642 ft | 144 kts | 322° |
| 2026-04-24 04:05 | 33.85086 | -116.52660 | 2133 ft | 164 kts | 323° |
| 2026-04-24 04:06 | 33.86083 | -116.53511 | 2613 ft | 186 kts | 324° |
| 2026-04-24 04:06 | 33.87202 | -116.54430 | 3236 ft | 200 kts | 325° |
| 2026-04-24 04:06 | 33.88360 | -116.55426 | 3964 ft | 208 kts | 323° |
| 2026-04-24 04:06 | 33.89555 | -116.56448 | 4743 ft | 213 kts | 324° |
| 2026-04-24 04:07 | 33.90930 | -116.57082 | 5539 ft | 218 kts | 360° |
| 2026-04-24 04:07 | 33.92326 | -116.56420 | 6334 ft | 226 kts | 40° |
| 2026-04-24 04:07 | 33.93486 | -116.54977 | 6671 ft | 253 kts | 41° |
| 2026-04-24 04:07 | 33.94830 | -116.53466 | 7031 ft | 273 kts | 40° |
| 2026-04-24 04:08 | 33.96135 | -116.51721 | 7053 ft | 283 kts | 59° |
| 2026-04-24 04:08 | 33.96561 | -116.49382 | 7095 ft | 292 kts | 92° |
| 2026-04-24 04:08 | 33.96010 | -116.46995 | 7136 ft | 299 kts | 108° |
| 2026-04-24 04:08 | 33.95460 | -116.44580 | 7276 ft | 287 kts | 104° |
| 2026-04-24 04:09 | 33.94911 | -116.42265 | 7734 ft | 293 kts | 112° |
| 2026-04-24 04:09 | 33.93630 | -116.40310 | 8217 ft | 308 kts | 142° |
| 2026-04-24 04:09 | 33.91968 | -116.38643 | 8685 ft | 303 kts | 138° |
| 2026-04-24 04:09 | 33.90413 | -116.36986 | 8898 ft | 299 kts | 139° |
| 2026-04-24 04:10 | 33.88802 | -116.35253 | 9458 ft | 309 kts | 139° |
| 2026-04-24 04:10 | 33.87226 | -116.33558 | 10434 ft | 301 kts | 139° |
| 2026-04-24 04:10 | 33.85656 | -116.31868 | 11207 ft | 302 kts | 140° |
| 2026-04-24 04:11 | 33.82473 | -116.28449 | 12371 ft | 312 kts | 140° |
| 2026-04-24 04:11 | 33.80824 | -116.26678 | 12974 ft | 320 kts | 140° |
| 2026-04-24 04:11 | 33.79035 | -116.24928 | 13061 ft | 341 kts | 152° |
| 2026-04-24 04:11 | 33.76859 | -116.23758 | 13062 ft | 338 kts | 158° |
| 2026-04-24 04:12 | 33.74729 | -116.22572 | 13032 ft | 338 kts | 159° |
| 2026-04-24 04:12 | 33.72551 | -116.21377 | 12999 ft | 336 kts | 159° |
| 2026-04-24 04:12 | 33.70437 | -116.20216 | 13004 ft | 333 kts | 159° |
| 2026-04-24 04:12 | 33.68324 | -116.19053 | 13014 ft | 331 kts | 159° |
| 2026-04-24 04:13 | 33.66206 | -116.17888 | 13023 ft | 328 kts | 159° |
| 2026-04-24 04:13 | 33.64097 | -116.16909 | 13007 ft | 322 kts | 174° |
| 2026-04-24 04:13 | 33.61901 | -116.17110 | 13042 ft | 307 kts | 203° |
| 2026-04-24 04:13 | 33.60103 | -116.18405 | 13056 ft | 297 kts | 222° |
| 2026-04-24 04:14 | 33.58427 | -116.19862 | 13035 ft | 298 kts | 220° |
| 2026-04-24 04:14 | 33.56751 | -116.21340 | 13031 ft | 297 kts | 220° |
| 2026-04-24 04:14 | 33.55067 | -116.22816 | 13033 ft | 296 kts | 220° |
| 2026-04-24 04:14 | 33.53398 | -116.24281 | 13080 ft | 296 kts | 220° |
| 2026-04-24 04:15 | 33.51711 | -116.25759 | 13092 ft | 299 kts | 220° |
| 2026-04-24 04:15 | 33.50007 | -116.27254 | 13074 ft | 303 kts | 220° |
| 2026-04-24 04:15 | 33.48271 | -116.28773 | 13007 ft | 305 kts | 220° |
| 2026-04-24 04:15 | 33.46545 | -116.30284 | 12988 ft | 305 kts | 220° |
| 2026-04-24 04:16 | 33.44822 | -116.31792 | 12973 ft | 305 kts | 220° |
| 2026-04-24 04:16 | 33.43092 | -116.33304 | 12953 ft | 306 kts | 220° |
| 2026-04-24 04:16 | 33.41377 | -116.34804 | 12929 ft | 306 kts | 220° |
| 2026-04-24 04:16 | 33.39620 | -116.36338 | 12900 ft | 307 kts | 220° |
| 2026-04-24 04:17 | 33.37898 | -116.37843 | 12854 ft | 309 kts | 220° |
| 2026-04-24 04:17 | 33.36150 | -116.39367 | 12793 ft | 307 kts | 220° |
| 2026-04-24 04:17 | 33.34401 | -116.40893 | 12782 ft | 305 kts | 220° |
| 2026-04-24 04:17 | 33.32696 | -116.42376 | 12780 ft | 302 kts | 220° |
| 2026-04-24 04:18 | 33.30992 | -116.43860 | 12784 ft | 299 kts | 220° |
| 2026-04-24 04:18 | 33.29305 | -116.45329 | 12788 ft | 297 kts | 220° |
| 2026-04-24 04:18 | 33.27618 | -116.46796 | 12751 ft | 296 kts | 220° |
| 2026-04-24 04:18 | 33.25945 | -116.48252 | 12733 ft | 297 kts | 220° |
| 2026-04-24 04:19 | 33.24255 | -116.49722 | 12741 ft | 299 kts | 220° |
| 2026-04-24 04:19 | 33.22549 | -116.51207 | 12754 ft | 302 kts | 220° |
| 2026-04-24 04:19 | 33.20827 | -116.52702 | 12757 ft | 304 kts | 220° |
| 2026-04-24 04:19 | 33.19102 | -116.54200 | 12758 ft | 306 kts | 220° |
| 2026-04-24 04:20 | 33.17348 | -116.55722 | 12760 ft | 308 kts | 219° |
| 2026-04-24 04:20 | 33.15597 | -116.57241 | 12761 ft | 309 kts | 219° |
| 2026-04-24 04:20 | 33.13741 | -116.58559 | 12743 ft | 316 kts | 202° |
| 2026-04-24 04:20 | 33.11521 | -116.58885 | 12781 ft | 321 kts | 187° |
| 2026-04-24 04:21 | 33.09238 | -116.59114 | 12769 ft | 323 kts | 189° |
| 2026-04-24 04:21 | 33.07000 | -116.59357 | 12773 ft | 324 kts | 189° |
| 2026-04-24 04:21 | 33.04730 | -116.59611 | 12603 ft | 331 kts | 191° |
| 2026-04-24 04:21 | 33.02508 | -116.60310 | 12180 ft | 320 kts | 201° |
| 2026-04-24 04:22 | 33.00397 | -116.61083 | 11671 ft | 305 kts | 201° |
| 2026-04-24 04:22 | 32.98408 | -116.61810 | 11146 ft | 292 kts | 201° |
| 2026-04-24 04:22 | 32.96488 | -116.62508 | 10651 ft | 282 kts | 201° |
| 2026-04-24 04:22 | 32.94625 | -116.63181 | 10173 ft | 272 kts | 201° |
| 2026-04-24 04:23 | 32.92825 | -116.63830 | 9748 ft | 265 kts | 201° |
| 2026-04-24 04:23 | 32.91062 | -116.64468 | 9370 ft | 259 kts | 201° |
| 2026-04-24 04:23 | 32.89346 | -116.65094 | 8998 ft | 255 kts | 200° |
| 2026-04-24 04:23 | 32.87655 | -116.65718 | 8754 ft | 247 kts | 200° |
| 2026-04-24 04:24 | 32.86038 | -116.66319 | 8710 ft | 233 kts | 200° |
| 2026-04-24 04:24 | 32.84523 | -116.66885 | 8700 ft | 218 kts | 200° |
| 2026-04-24 04:24 | 32.83115 | -116.67416 | 8697 ft | 205 kts | 200° |
| 2026-04-24 04:24 | 32.81794 | -116.67918 | 8695 ft | 193 kts | 200° |
| 2026-04-24 04:25 | 32.80433 | -116.68450 | 8731 ft | 209 kts | 200° |
| 2026-04-24 04:25 | 32.79007 | -116.69014 | 8710 ft | 217 kts | 200° |
| 2026-04-24 04:25 | 32.77548 | -116.69595 | 8692 ft | 224 kts | 200° |
| 2026-04-24 04:25 | 32.76164 | -116.70489 | 8657 ft | 226 kts | 229° |
| 2026-04-24 04:26 | 32.75285 | -116.72050 | 8349 ft | 229 kts | 240° |
| 2026-04-24 04:26 | 32.74455 | -116.73711 | 8019 ft | 233 kts | 240° |
| 2026-04-24 04:26 | 32.73616 | -116.75390 | 7679 ft | 236 kts | 240° |
| 2026-04-24 04:26 | 32.72772 | -116.77068 | 7329 ft | 238 kts | 240° |
| 2026-04-24 04:27 | 32.71904 | -116.78776 | 6957 ft | 239 kts | 240° |
| 2026-04-24 04:27 | 32.71038 | -116.80476 | 6582 ft | 240 kts | 240° |
| 2026-04-24 04:27 | 32.70090 | -116.82104 | 6210 ft | 243 kts | 224° |
| 2026-04-24 04:27 | 32.68544 | -116.82930 | 5879 ft | 247 kts | 191° |
| 2026-04-24 04:28 | 32.66820 | -116.83236 | 5546 ft | 248 kts | 191° |
| 2026-04-24 04:28 | 32.65105 | -116.83546 | 5217 ft | 251 kts | 191° |
| 2026-04-24 04:28 | 32.63393 | -116.83969 | 5022 ft | 240 kts | 206° |
| 2026-04-24 04:28 | 32.62275 | -116.85252 | 5015 ft | 221 kts | 248° |
| 2026-04-24 04:29 | 32.62159 | -116.87065 | 5029 ft | 219 kts | 280° |
| 2026-04-24 04:29 | 32.62463 | -116.88855 | 5002 ft | 222 kts | 288° |
| 2026-04-24 04:29 | 32.63048 | -116.90576 | 5005 ft | 223 kts | 292° |
| 2026-04-24 04:29 | 32.63650 | -116.92282 | 5005 ft | 224 kts | 292° |
| 2026-04-24 04:30 | 32.64286 | -116.93996 | 5000 ft | 220 kts | 296° |
| 2026-04-24 04:30 | 32.65015 | -116.95528 | 4894 ft | 208 kts | 302° |
| 2026-04-24 04:30 | 32.65772 | -116.96957 | 4677 ft | 202 kts | 301° |
| 2026-04-24 04:30 | 32.66499 | -116.98383 | 4354 ft | 202 kts | 300° |
| 2026-04-24 04:31 | 32.67202 | -116.99831 | 4078 ft | 199 kts | 299° |
| 2026-04-24 04:31 | 32.67842 | -117.01205 | 3757 ft | 178 kts | 298° |
| 2026-04-24 04:31 | 32.68380 | -117.02450 | 3492 ft | 161 kts | 296° |
| 2026-04-24 04:31 | 32.68864 | -117.03639 | 3203 ft | 159 kts | 295° |
| 2026-04-24 04:32 | 32.69331 | -117.04838 | 2886 ft | 159 kts | 294° |
| 2026-04-24 04:32 | 32.69777 | -117.06053 | 2562 ft | 159 kts | 293° |
| 2026-04-24 04:32 | 32.70188 | -117.07254 | 2313 ft | 155 kts | 291° |
| 2026-04-24 04:32 | 32.70581 | -117.08429 | 2056 ft | 152 kts | 292° |
| 2026-04-24 04:33 | 32.70963 | -117.09605 | 1793 ft | 150 kts | 291° |
| 2026-04-24 04:33 | 32.71327 | -117.10744 | 1588 ft | 138 kts | 290° |
| 2026-04-24 04:33 | 32.71594 | -117.11748 | 1432 ft | 123 kts | 287° |
| 2026-04-24 04:33 | 32.71831 | -117.12714 | 1221 ft | 118 kts | 287° |
| 2026-04-24 04:34 | 32.72057 | -117.13648 | 1022 ft | 115 kts | 286° |
| 2026-04-24 04:34 | 32.72271 | -117.14572 | 785 ft | 116 kts | 286° |
| 2026-04-24 04:34 | 32.72505 | -117.15476 | 600 ft | 112 kts | 288° |
| 2026-04-24 04:34 | 32.72730 | -117.16362 | 426 ft | 114 kts | 285° |
| 2026-04-24 04:35 | 32.72957 | -117.17297 | 218 ft | 120 kts | 285° |
| 2026-04-24 04:35 | 32.73182 | -117.18253 | 39 ft | 114 kts | 287° |
| 2026-04-24 04:35 | 32.73359 | -117.18978 | 19 ft | 48 kts | 285° |
| 2026-04-24 04:35 | 32.73419 | -117.19097 | 19 ft | 10 kts | 354° |
| 2026-04-24 04:36 | 32.73481 | -117.19055 | 19 ft | 10 kts | 66° |
| 2026-04-24 04:36 | 32.73469 | -117.18970 | 19 ft | 10 kts | 106° |
| 2026-04-24 04:36 | 32.73449 | -117.18881 | 19 ft | 11 kts | 104° |
| 2026-04-24 04:36 | 32.73488 | -117.18826 | 19 ft | 10 kts | 15° |
| 2026-04-24 04:37 | 32.73518 | -117.18816 | 19 ft | 0 kts | 15° |